Time;durP1;ratioP1;P1;durP2;ratioP2;P2;SDS_P1;SDS_P2;PMS_P1;PMS_P2;Temp;Humidity;BMP_temperature;BMP_pressure;BME280_temperature;BME280_humidity;BME280_pressure;Samples;Min_cycle;Max_cycle;Signal;HPM_P1;HPM_P2
2022/08/03 00:00:25;;;;;;;21.03;13.60;;;;;;;17.86;100.00;100171.50;4162664;28;21719;-66
2022/08/03 00:02:52;;;;;;;23.60;13.90;;;;;;;17.82;100.00;100181.84;4161348;28;22677;-64
2022/08/03 00:05:18;;;;;;;17.23;12.53;;;;;;;17.82;100.00;100175.66;4160287;28;21135;-65
2022/08/03 00:07:45;;;;;;;23.40;13.67;;;;;;;17.78;100.00;100166.28;4163107;28;20235;-66
2022/08/03 00:10:14;;;;;;;19.70;13.97;;;;;;;17.74;100.00;100171.22;4162600;28;21751;-67
2022/08/03 00:12:40;;;;;;;18.60;14.23;;;;;;;17.69;100.00;100177.19;4164032;28;21127;-65
2022/08/03 00:15:07;;;;;;;17.80;13.50;;;;;;;17.63;100.00;100171.75;4157748;28;20305;-65
2022/08/03 00:17:42;;;;;;;16.27;12.03;;;;;;;17.63;100.00;100167.22;4164398;28;22317;-65
2022/08/03 00:20:22;;;;;;;14.90;11.40;;;;;;;17.64;100.00;100170.75;4166201;28;20376;-65
2022/08/03 00:22:50;;;;;;;16.80;13.83;;;;;;;17.61;100.00;100176.53;4164020;28;20411;-67
2022/08/03 00:25:17;;;;;;;17.83;13.37;;;;;;;17.58;100.00;100172.34;4161868;28;22580;-66
2022/08/03 00:27:44;;;;;;;20.60;13.10;;;;;;;17.59;100.00;100179.41;4163739;28;20241;-65
2022/08/03 00:30:10;;;;;;;19.17;12.77;;;;;;;17.58;100.00;100175.03;4160214;28;20235;-65
2022/08/03 00:32:37;;;;;;;17.40;13.73;;;;;;;17.51;100.00;100174.16;4164749;28;21151;-65
2022/08/03 00:35:11;;;;;;;20.87;14.90;;;;;;;17.53;100.00;100180.19;4166353;28;20242;-64
2022/08/03 00:37:58;;;;;;;18.80;13.77;;;;;;;17.51;100.00;100168.78;4170599;28;21499;-67
2022/08/03 00:40:25;;;;;;;17.30;13.77;;;;;;;17.48;100.00;100170.00;4163389;28;20244;-65
2022/08/03 00:42:57;;;;;;;16.77;13.10;;;;;;;17.46;100.00;100182.81;4167363;28;20242;-63
2022/08/03 00:45:28;;;;;;;19.77;15.50;;;;;;;17.43;100.00;100182.41;4166408;28;20253;-66
2022/08/03 00:47:55;;;;;;;21.13;14.20;;;;;;;17.40;100.00;100172.88;4165863;28;20308;-66
2022/08/03 00:50:23;;;;;;;21.87;14.80;;;;;;;17.38;100.00;100179.47;4167745;28;20242;-65
2022/08/03 00:52:55;;;;;;;19.23;13.60;;;;;;;17.39;100.00;100181.13;4162728;28;20407;-67
2022/08/03 00:55:22;;;;;;;20.33;14.70;;;;;;;17.40;100.00;100182.81;4163230;28;22230;-67
2022/08/03 00:57:49;;;;;;;20.77;14.43;;;;;;;17.39;100.00;100181.94;4170877;28;20303;-66
2022/08/03 01:00:18;;;;;;;16.03;13.17;;;;;;;17.40;100.00;100183.63;4150297;28;20706;-64
2022/08/03 01:02:45;;;;;;;18.03;13.63;;;;;;;17.34;100.00;100188.94;4168253;28;20360;-64
2022/08/03 01:05:12;;;;;;;21.83;14.03;;;;;;;17.30;100.00;100183.97;4157174;28;21628;-68
2022/08/03 01:07:50;;;;;;;18.30;12.57;;;;;;;17.25;100.00;100181.00;4167631;28;20599;-66
2022/08/03 01:10:41;;;;;;;20.03;12.60;;;;;;;17.26;100.00;100177.31;4168476;28;20225;-67
2022/08/03 01:13:20;;;;;;;17.60;13.30;;;;;;;17.28;100.00;100183.34;4176999;28;23239;-67
2022/08/03 01:16:14;;;;;;;22.20;15.27;;;;;;;17.22;100.00;100183.28;4169599;28;20245;-66
2022/08/03 01:18:52;;;;;;;20.70;14.50;;;;;;;17.20;100.00;100188.00;4177003;28;21876;-64
2022/08/03 01:21:26;;;;;;;17.07;13.87;;;;;;;17.24;100.00;100186.59;4165013;28;20233;-67
2022/08/03 01:24:33;;;;;;;23.50;16.93;;;;;;;17.18;100.00;100180.13;4162705;28;20245;-65
2022/08/03 01:27:08;;;;;;;25.73;16.80;;;;;;;17.16;100.00;100192.09;4203325;28;22026;-66
2022/08/03 01:30:02;;;;;;;22.40;18.07;;;;;;;16.98;100.00;100192.59;4142165;28;20240;-65
2022/08/03 01:32:49;;;;;;;21.10;16.83;;;;;;;16.85;100.00;100190.59;4176456;28;20238;-66
2022/08/03 01:35:32;;;;;;;29.87;22.60;;;;;;;16.83;100.00;100181.88;4162083;28;20242;-66
2022/08/03 01:38:34;;;;;;;27.43;19.40;;;;;;;16.80;100.00;100188.47;4167056;28;22298;-64
2022/08/03 01:41:05;;;;;;;25.53;16.33;;;;;;;16.87;100.00;100186.69;4201287;28;20341;-67
2022/08/03 01:43:35;;;;;;;20.10;16.10;;;;;;;16.88;100.00;100179.47;4165155;28;20853;-63
2022/08/03 01:46:24;;;;;;;19.93;14.87;;;;;;;16.87;100.00;100184.00;4188112;28;20350;-66
2022/08/03 01:48:51;;;;;;;22.67;17.90;;;;;;;16.94;100.00;100183.25;4170159;28;20240;-65
2022/08/03 01:51:19;;;;;;;26.57;17.03;;;;;;;16.91;100.00;100175.56;4170968;28;21646;-66
2022/08/03 01:53:47;;;;;;;22.80;17.03;;;;;;;16.91;100.00;100175.56;4197118;28;20230;-66
2022/08/03 01:56:15;;;;;;;24.87;17.50;;;;;;;16.79;100.00;100170.72;4166511;28;20258;-66
2022/08/03 01:58:43;;;;;;;21.67;15.40;;;;;;;16.81;100.00;100165.97;4148046;28;22840;-65
2022/08/03 02:01:10;;;;;;;18.07;13.50;;;;;;;16.86;100.00;100160.84;4166653;28;20328;-66
2022/08/03 02:03:39;;;;;;;20.10;14.50;;;;;;;16.85;100.00;100163.72;4147124;28;21690;-66
2022/08/03 02:06:26;;;;;;;20.97;14.17;;;;;;;16.88;100.00;100158.81;4163423;28;21119;-66
2022/08/03 02:09:14;;;;;;;24.20;15.47;;;;;;;16.86;100.00;100160.03;4161176;28;20246;-68
2022/08/03 02:11:42;;;;;;;18.73;15.07;;;;;;;16.94;100.00;100161.75;4158844;28;22308;-64
2022/08/03 02:14:09;;;;;;;21.20;15.77;;;;;;;17.01;100.00;100152.69;4157833;28;21855;-65
2022/08/03 02:16:36;;;;;;;25.67;17.77;;;;;;;17.05;100.00;100153.16;4150587;28;23000;-66
2022/08/03 02:19:05;;;;;;;21.23;14.67;;;;;;;17.08;100.00;100150.06;4166205;28;22909;-68
2022/08/03 02:21:36;;;;;;;22.60;13.67;;;;;;;17.10;100.00;100153.41;4163601;28;20257;-67
2022/08/03 02:24:22;;;;;;;22.90;15.90;;;;;;;17.05;100.00;100153.16;4155538;28;20235;-65
2022/08/03 02:26:50;;;;;;;20.23;14.10;;;;;;;17.07;100.00;100156.47;4161710;28;21474;-67
2022/08/03 02:29:20;;;;;;;20.27;13.53;;;;;;;16.99;100.00;100153.91;4157429;28;20239;-66
2022/08/03 02:32:08;;;;;;;19.50;13.97;;;;;;;16.99;100.00;100153.91;4147853;28;21021;-68
2022/08/03 02:34:35;;;;;;;30.27;19.40;;;;;;;16.95;100.00;100155.31;4164128;28;21713;-65
2022/08/03 02:37:03;;;;;;;33.07;20.40;;;;;;;16.86;100.00;100158.16;4150586;28;20251;-66
2022/08/03 02:39:32;;;;;;;26.67;18.53;;;;;;;16.75;100.00;100155.94;4154687;28;20246;-66
2022/08/03 02:42:04;;;;;;;20.67;14.83;;;;;;;16.82;100.00;100159.56;4163179;28;20312;-66
2022/08/03 02:44:33;;;;;;;18.60;13.47;;;;;;;16.81;100.00;100155.22;4164362;28;24783;-66
2022/08/03 02:47:04;;;;;;;18.20;13.50;;;;;;;16.81;100.00;100157.06;4147296;28;20267;-66
2022/08/03 02:49:31;;;;;;;20.50;13.67;;;;;;;16.75;100.00;100168.56;4168086;28;20230;-67
2022/08/03 02:52:16;;;;;;;26.63;17.80;;;;;;;16.69;100.00;100164.75;4162919;28;22154;-66
2022/08/03 02:54:45;;;;;;;19.53;14.10;;;;;;;16.76;100.00;100162.97;4150403;28;26339;-65
2022/08/03 02:57:12;;;;;;;27.10;17.97;;;;;;;16.75;100.00;100164.00;4169893;28;21867;-64
2022/08/03 02:59:39;;;;;;;20.77;15.20;;;;;;;16.82;100.00;100164.94;4163614;28;21691;-65
2022/08/03 03:02:06;;;;;;;20.67;13.97;;;;;;;16.91;100.00;100171.03;4149147;28;20237;-66
2022/08/03 03:04:34;;;;;;;21.53;14.20;;;;;;;17.05;100.00;100169.28;4162168;28;20248;-65
2022/08/03 03:07:01;;;;;;;22.33;14.43;;;;;;;17.10;100.00;100169.53;4162832;28;20343;-67
2022/08/03 03:09:31;;;;;;;18.93;11.73;;;;;;;17.11;100.00;100168.50;4159261;28;21133;-66
2022/08/03 03:12:09;;;;;;;15.53;12.37;;;;;;;17.13;100.00;100174.50;4165705;28;20239;-67
2022/08/03 03:14:37;;;;;;;15.13;12.47;;;;;;;17.14;100.00;100172.66;4147008;28;21518;-65
2022/08/03 03:17:05;;;;;;;18.77;13.73;;;;;;;17.09;100.00;100175.91;4180819;28;20231;-65
2022/08/03 03:19:33;;;;;;;18.83;14.17;;;;;;;17.15;100.00;100174.31;4198591;28;20546;-66
2022/08/03 03:22:01;;;;;;;22.40;16.33;;;;;;;17.13;100.00;100182.56;4162776;28;22128;-66
2022/08/03 03:24:29;;;;;;;25.73;17.53;;;;;;;17.08;100.00;100177.78;4186994;28;20327;-65
2022/08/03 03:26:56;;;;;;;20.70;15.07;;;;;;;17.07;100.00;100178.81;4157803;28;20638;-65
2022/08/03 03:29:22;;;;;;;21.60;13.20;;;;;;;17.16;100.00;100181.34;4177090;28;20269;-66
2022/08/03 03:31:49;;;;;;;21.00;14.63;;;;;;;17.25;100.00;100181.00;4156373;28;21978;-66
2022/08/03 03:34:17;;;;;;;22.77;14.17;;;;;;;17.28;100.00;100186.03;4185721;28;22121;-67
2022/08/03 03:36:43;;;;;;;24.50;14.70;;;;;;;17.32;100.00;100174.88;4204003;28;20583;-67
2022/08/03 03:39:11;;;;;;;17.53;13.20;;;;;;;17.37;100.00;100188.56;4195828;28;21173;-65
2022/08/03 03:41:41;;;;;;;23.13;14.23;;;;;;;17.32;100.00;100177.56;4178717;28;20325;-69
2022/08/03 03:44:08;;;;;;;40.57;25.33;;;;;;;17.41;100.00;100187.97;4189839;28;20238;-69
2022/08/03 03:46:35;;;;;;;33.63;21.17;;;;;;;17.47;100.00;100178.31;4180733;28;20241;-66
2022/08/03 03:49:01;;;;;;;26.20;16.80;;;;;;;17.61;100.00;100179.22;4202192;28;21967;-66
2022/08/03 03:51:28;;;;;;;21.30;15.97;;;;;;;17.64;100.00;100179.63;4157903;28;25670;-65
2022/08/03 03:53:59;;;;;;;21.57;15.67;;;;;;;17.79;100.00;100186.75;4167708;28;20416;-67
2022/08/03 03:56:26;;;;;;;24.10;15.33;;;;;;;17.89;100.00;100187.28;4160178;28;20311;-66
2022/08/03 03:58:53;;;;;;;18.67;13.90;;;;;;;17.99;100.00;100190.44;4168786;28;20329;-65
2022/08/03 04:01:20;;;;;;;18.97;14.07;;;;;;;18.02;100.00;100192.72;4166867;28;20564;-64
2022/08/03 04:03:46;;;;;;;24.13;16.87;;;;;;;18.05;100.00;100186.94;4158662;28;20242;-66
2022/08/03 04:11:49;;;;;;;24.83;15.50;;;;;;;18.27;100.00;100200.31;4169304;28;21918;-66
2022/08/03 04:14:22;;;;;;;23.43;16.37;;;;;;;18.37;100.00;100205.31;4150953;28;21431;-66
2022/08/03 04:16:50;;;;;;;20.70;14.53;;;;;;;18.45;99.22;100207.81;4166869;28;20305;-66
2022/08/03 04:19:26;;;;;;;23.13;15.90;;;;;;;18.47;98.62;100212.00;4141641;28;20234;-66
2022/08/03 04:21:55;;;;;;;20.47;14.63;;;;;;;18.60;98.35;100210.38;4158854;28;20383;-66
2022/08/03 04:24:25;;;;;;;22.13;15.63;;;;;;;18.69;97.73;100214.53;4148575;28;21715;-65
2022/08/03 04:26:52;;;;;;;26.23;15.47;;;;;;;18.80;97.09;100215.81;4161958;28;20306;-65
2022/08/03 04:29:19;;;;;;;25.80;15.83;;;;;;;18.83;96.31;100223.50;4162130;28;21074;-67
2022/08/03 04:31:47;;;;;;;26.63;15.07;;;;;;;18.97;95.80;100227.91;4152680;28;20238;-64
2022/08/03 04:34:14;;;;;;;20.07;14.23;;;;;;;19.10;94.47;100232.47;4162637;28;21309;-67
2022/08/03 04:36:47;;;;;;;27.77;16.33;;;;;;;19.07;93.79;100232.88;4151983;28;20683;-65
2022/08/03 04:39:18;;;;;;;25.87;15.63;;;;;;;19.08;93.42;100230.00;4159417;28;20246;-67
2022/08/03 04:41:47;;;;;;;24.63;16.20;;;;;;;18.97;93.88;100234.13;4157085;28;20339;-66
2022/08/03 04:44:39;;;;;;;22.90;15.33;;;;;;;19.01;93.35;100236.38;4165281;28;21740;-66
2022/08/03 04:47:06;;;;;;;24.80;16.53;;;;;;;18.74;95.21;100236.31;4147689;28;20250;-65
2022/08/03 04:49:35;;;;;;;21.53;15.73;;;;;;;18.77;95.43;100244.00;4156510;28;20342;-63
2022/08/03 04:52:02;;;;;;;21.97;15.27;;;;;;;18.85;95.46;100238.44;4163767;28;22568;-65
2022/08/03 04:54:28;;;;;;;29.97;17.17;;;;;;;18.75;96.18;100246.06;4149446;28;20529;-66
2022/08/03 04:56:55;;;;;;;22.83;16.63;;;;;;;18.76;96.66;100242.34;4162768;28;25644;-69
2022/08/03 04:59:21;;;;;;;21.53;14.53;;;;;;;18.89;96.44;100242.38;4163674;28;20246;-65
2022/08/03 05:01:48;;;;;;;29.00;17.33;;;;;;;18.79;96.03;100244.66;4155072;28;20486;-66
2022/08/03 05:04:15;;;;;;;26.23;17.50;;;;;;;18.86;96.11;100241.97;4164467;28;20239;-67
2022/08/03 05:06:41;;;;;;;33.93;19.47;;;;;;;18.68;95.17;100242.50;4171875;28;20419;-65
2022/08/03 05:09:13;;;;;;;32.70;19.37;;;;;;;18.62;94.92;100246.03;4159947;28;20252;-66
2022/08/03 05:11:51;;;;;;;24.53;16.53;;;;;;;18.92;94.36;100255.47;4159987;28;21591;-66
2022/08/03 05:14:17;;;;;;;22.43;15.97;;;;;;;18.94;94.36;100260.66;4169350;28;20256;-66
2022/08/03 05:16:53;;;;;;;20.47;15.63;;;;;;;19.01;94.48;100255.25;4174396;28;20297;-66
2022/08/03 05:19:20;;;;;;;24.20;15.63;;;;;;;19.11;94.61;100258.41;4165680;28;20246;-66
2022/08/03 05:21:46;;;;;;;27.83;17.37;;;;;;;19.03;94.84;100264.81;4165593;28;20324;-68
2022/08/03 05:24:18;;;;;;;29.93;18.10;;;;;;;19.03;95.00;100254.03;4175811;28;20254;-65
2022/08/03 05:26:45;;;;;;;27.00;18.10;;;;;;;19.10;94.84;100257.56;4172791;28;21869;-67
2022/08/03 05:29:11;;;;;;;23.80;17.90;;;;;;;19.37;93.53;100265.69;4164714;28;20234;-69
2022/08/03 05:31:39;;;;;;;23.00;16.03;;;;;;;19.69;92.16;100264.06;4160379;28;20662;-67
2022/08/03 05:34:06;;;;;;;23.73;16.17;;;;;;;19.82;90.01;100269.44;4168671;28;20238;-70
2022/08/03 05:36:33;;;;;;;30.87;17.03;;;;;;;19.67;89.66;100266.13;4164213;28;20234;-66
2022/08/03 05:38:59;;;;;;;25.17;16.97;;;;;;;19.57;89.55;100271.09;4159957;28;20290;-68
2022/08/03 05:41:28;;;;;;;25.53;17.53;;;;;;;19.55;88.83;100267.75;4173547;28;20259;-69
2022/08/03 05:44:03;;;;;;;24.17;17.00;;;;;;;19.61;89.28;100275.03;4168085;28;20357;-69
2022/08/03 05:46:30;;;;;;;27.90;16.00;;;;;;;19.70;88.89;100271.13;4159268;28;20429;-67
2022/08/03 05:48:56;;;;;;;24.17;16.30;;;;;;;19.69;88.69;100274.03;4168250;28;20374;-68
2022/08/03 05:51:23;;;;;;;26.13;15.33;;;;;;;19.77;89.14;100277.34;4168409;28;20238;-66
2022/08/03 05:53:49;;;;;;;25.07;16.07;;;;;;;19.98;88.37;100278.16;4153666;28;20242;-69
2022/08/03 05:56:16;;;;;;;27.17;17.93;;;;;;;19.74;89.69;100279.66;4166760;28;20246;-71
2022/08/03 05:58:44;;;;;;;26.90;17.07;;;;;;;19.72;89.92;100279.84;4169685;28;21121;-68
2022/08/03 06:01:11;;;;;;;23.17;15.63;;;;;;;19.80;89.73;100279.63;4166963;28;20297;-67
2022/08/03 06:03:37;;;;;;;23.43;16.63;;;;;;;19.76;89.32;100285.66;4168016;28;20226;-72
2022/08/03 06:06:04;;;;;;;22.13;15.80;;;;;;;19.88;89.64;100277.72;4152569;28;20273;-70
2022/08/03 06:08:30;;;;;;;25.67;16.50;;;;;;;20.02;89.02;100284.81;4167033;28;22568;-67
2022/08/03 06:10:58;;;;;;;27.67;17.77;;;;;;;20.42;86.57;100287.41;4177965;28;22198;-67
2022/08/03 06:13:25;;;;;;;23.40;15.63;;;;;;;21.00;81.73;100300.91;4179801;28;20682;-68
2022/08/03 06:15:51;;;;;;;25.77;15.50;;;;;;;22.47;74.76;100292.34;4159148;28;22720;-69
2022/08/03 06:18:18;;;;;;;23.17;13.00;;;;;;;23.56;69.36;100315.94;4166673;28;20230;-72
2022/08/03 06:20:44;;;;;;;26.13;14.07;;;;;;;24.20;64.04;100314.22;4174669;28;20250;-66
2022/08/03 06:23:14;;;;;;;18.60;13.30;;;;;;;24.29;63.79;100322.03;4172510;28;21213;-67
2022/08/03 06:25:44;;;;;;;17.77;12.33;;;;;;;24.58;62.80;100322.94;4171840;28;21201;-66
2022/08/03 06:28:13;;;;;;;21.23;13.23;;;;;;;24.23;63.69;100321.06;4171712;28;20252;-61
2022/08/03 06:31:00;;;;;;;20.17;13.93;;;;;;;24.14;63.91;100311.59;4170768;28;20246;-68
2022/08/03 06:33:27;;;;;;;24.20;13.20;;;;;;;24.15;64.99;100321.44;4177405;28;21829;-63
2022/08/03 06:36:14;;;;;;;22.00;13.63;;;;;;;24.05;64.92;100318.50;4169472;28;20423;-67
2022/08/03 06:38:40;;;;;;;19.80;15.23;;;;;;;23.49;67.61;100309.78;4168856;28;20662;-66
2022/08/03 06:41:07;;;;;;;19.40;12.50;;;;;;;23.28;69.80;100313.88;4152098;28;21353;-65
2022/08/03 06:43:36;;;;;;;22.43;12.90;;;;;;;23.25;69.64;100308.88;4168000;28;20654;-68
2022/08/03 06:46:06;;;;;;;21.70;13.80;;;;;;;23.16;70.83;100306.50;4179264;28;20227;-67
2022/08/03 06:48:33;;;;;;;22.60;13.80;;;;;;;23.31;71.03;100308.78;4150749;28;21823;-65
2022/08/03 06:51:00;;;;;;;18.07;12.20;;;;;;;23.84;69.40;100315.28;4177402;28;22713;-77
2022/08/03 06:53:26;;;;;;;22.73;14.10;;;;;;;24.11;66.78;100312.09;4168222;28;20272;-65
2022/08/03 06:55:53;;;;;;;19.87;13.37;;;;;;;24.01;68.29;100318.94;4168798;28;20769;-68
2022/08/03 06:58:21;;;;;;;22.37;13.70;;;;;;;24.35;66.79;100319.19;4169181;28;22056;-66
2022/08/03 07:00:48;;;;;;;22.33;13.70;;;;;;;25.14;64.22;100315.03;4182628;28;23625;-66
2022/08/03 07:03:15;;;;;;;23.20;12.90;;;;;;;26.35;58.37;100327.41;4230399;28;20305;-67
2022/08/03 07:05:42;;;;;;;21.63;12.40;;;;;;;27.36;54.89;100332.44;4200591;28;22985;-65
2022/08/03 07:08:09;;;;;;;19.33;10.83;;;;;;;28.70;50.81;100340.50;4186561;28;20543;-65
2022/08/03 07:10:36;;;;;;;24.20;12.70;;;;;;;30.54;42.91;100360.94;4187010;28;22097;-66
2022/08/03 07:13:03;;;;;;;18.77;11.97;;;;;;;31.11;41.01;100357.66;4174632;28;20560;-65
2022/08/03 07:15:30;;;;;;;20.10;11.70;;;;;;;32.06;38.61;100365.81;4179045;28;20235;-67
2022/08/03 07:18:16;;;;;;;15.43;8.98;;;;;;;32.83;36.67;100365.78;4195916;28;20470;-64
2022/08/03 07:20:54;;;;;;;24.60;12.60;;;;;;;32.24;36.30;100362.31;4194155;28;20234;-66
2022/08/03 07:23:21;;;;;;;20.00;10.98;;;;;;;32.36;37.01;100359.16;4163999;28;25484;-66
2022/08/03 07:25:47;;;;;;;15.48;10.50;;;;;;;33.63;33.73;100367.69;4162013;28;20234;-67
2022/08/03 07:28:14;;;;;;;22.23;10.43;;;;;;;34.64;31.41;100373.63;4169977;28;22539;-67
2022/08/03 07:30:41;;;;;;;16.90;8.60;;;;;;;35.70;30.31;100377.88;4176513;28;20227;-67
2022/08/03 07:33:07;;;;;;;18.75;9.93;;;;;;;36.07;29.43;100383.31;4158286;28;20221;-66
2022/08/03 07:35:34;;;;;;;20.20;10.18;;;;;;;35.29;30.51;100365.03;4164854;28;25305;-66
2022/08/03 07:38:01;;;;;;;16.52;9.50;;;;;;;33.95;32.70;100355.00;4188940;28;21150;-66
2022/08/03 07:40:27;;;;;;;12.57;7.88;;;;;;;33.97;32.55;100361.00;4181799;28;20242;-67
2022/08/03 07:42:57;;;;;;;11.45;7.90;;;;;;;33.47;32.17;100352.47;4161806;28;20318;-65
2022/08/03 07:45:25;;;;;;;13.23;6.80;;;;;;;32.53;33.65;100353.19;4162193;28;22118;-68
2022/08/03 07:47:51;;;;;;;11.52;6.32;;;;;;;31.63;34.91;100347.16;4167524;28;22060;-64
2022/08/03 07:50:20;;;;;;;13.50;7.00;;;;;;;30.13;37.94;100333.56;4174126;28;23074;-66
2022/08/03 07:52:48;;;;;;;18.75;7.88;;;;;;;28.85;42.37;100331.53;4181000;28;20279;-65
2022/08/03 07:55:15;;;;;;;16.27;7.90;;;;;;;28.31;44.07;100318.94;4164337;28;20627;-69
2022/08/03 07:57:43;;;;;;;11.80;6.78;;;;;;;28.52;45.19;100317.16;4169758;28;20372;-66
2022/08/03 08:00:16;;;;;;;15.82;6.32;;;;;;;28.69;43.61;100321.59;4170867;28;20245;-51
2022/08/03 08:02:43;;;;;;;10.20;6.25;;;;;;;29.33;41.98;100321.22;4166842;28;20464;-49
2022/08/03 08:05:10;;;;;;;9.50;5.63;;;;;;;29.68;42.53;100325.09;4161375;28;23426;-53
2022/08/03 08:07:37;;;;;;;16.47;6.80;;;;;;;29.67;40.91;100323.47;4173316;28;20561;-52
2022/08/03 08:10:06;;;;;;;13.45;5.97;;;;;;;29.71;43.40;100324.53;4184815;28;20236;-46
2022/08/03 08:12:33;;;;;;;12.20;5.95;;;;;;;30.02;42.40;100336.31;4162638;28;20311;-68
2022/08/03 08:15:00;;;;;;;11.15;5.20;;;;;;;29.69;39.84;100335.00;4148126;28;25803;-68
2022/08/03 08:17:26;;;;;;;8.95;4.97;;;;;;;29.34;40.86;100331.09;4159454;28;20321;-67
2022/08/03 08:19:53;;;;;;;9.13;5.20;;;;;;;29.07;41.65;100339.53;4174648;28;20242;-67
2022/08/03 08:22:21;;;;;;;7.75;4.28;;;;;;;28.55;43.21;100330.31;4147037;28;20685;-71
2022/08/03 08:24:58;;;;;;;8.00;3.53;;;;;;;28.17;43.20;100332.28;4159223;28;20303;-65
2022/08/03 08:27:24;;;;;;;7.70;3.80;;;;;;;27.97;43.54;100334.88;4172007;28;20241;-70
2022/08/03 08:29:51;;;;;;;6.88;4.03;;;;;;;27.81;44.98;100324.88;4184828;28;20237;-71
2022/08/03 08:32:22;;;;;;;7.95;4.00;;;;;;;28.08;43.08;100325.66;4169761;28;20482;-69
2022/08/03 08:34:48;;;;;;;8.13;3.78;;;;;;;28.02;43.76;100332.16;4158435;28;20640;-67
2022/08/03 08:37:15;;;;;;;7.33;4.23;;;;;;;28.56;42.38;100331.13;4162441;28;20245;-68
2022/08/03 08:39:41;;;;;;;6.30;3.70;;;;;;;28.96;42.32;100335.09;4170459;28;20243;-66
2022/08/03 08:42:09;;;;;;;5.70;3.80;;;;;;;28.79;42.19;100330.66;4166919;28;20243;-68
2022/08/03 08:44:35;;;;;;;8.10;3.65;;;;;;;28.77;41.76;100323.81;4167205;28;20233;-66
2022/08/03 08:47:02;;;;;;;8.98;3.50;;;;;;;28.56;40.02;100331.94;4172795;28;21878;-68
2022/08/03 08:49:31;;;;;;;5.70;2.83;;;;;;;28.53;39.19;100329.75;4177098;28;21583;-69
2022/08/03 08:51:59;;;;;;;6.25;2.83;;;;;;;28.93;38.22;100344.69;4156978;28;20250;-73
2022/08/03 08:54:28;;;;;;;7.47;2.50;;;;;;;29.55;35.57;100344.81;4164693;28;20297;-66
2022/08/03 08:56:55;;;;;;;6.57;2.15;;;;;;;29.14;35.88;100342.03;4165493;28;21753;-67
2022/08/03 08:59:23;;;;;;;6.78;2.70;;;;;;;28.93;35.76;100346.59;4175586;28;20343;-67
2022/08/03 09:01:49;;;;;;;5.05;2.30;;;;;;;28.80;36.74;100342.47;4174480;28;26392;-72
2022/08/03 09:04:16;;;;;;;4.57;2.30;;;;;;;28.80;36.62;100345.19;4181660;28;20258;-66
2022/08/03 09:06:43;;;;;;;4.60;2.57;;;;;;;29.27;36.48;100347.00;4183146;28;20231;-67
2022/08/03 09:09:31;;;;;;;9.40;3.35;;;;;;;29.12;37.71;100338.72;4193133;28;26306;-69
2022/08/03 09:12:18;;;;;;;11.32;2.53;;;;;;;28.91;38.58;100340.56;4171350;28;20239;-67
2022/08/03 09:15:25;;;;;;;6.05;2.33;;;;;;;28.20;39.33;100339.94;4189069;28;20302;-68
2022/08/03 09:17:57;;;;;;;7.85;2.80;;;;;;;28.08;39.99;100339.31;4174234;28;20623;-67
2022/08/03 09:20:25;;;;;;;7.25;3.20;;;;;;;27.91;40.08;100335.91;4171675;28;20370;-70
2022/08/03 09:22:53;;;;;;;7.22;2.90;;;;;;;27.28;42.51;100322.81;4160691;28;21429;-67
2022/08/03 09:25:36;;;;;;;4.30;2.50;;;;;;;27.83;39.06;100331.75;4173803;28;21223;-66
2022/08/03 09:28:05;;;;;;;5.95;2.20;;;;;;;28.32;37.85;100333.44;4176834;28;20249;-67
2022/08/03 09:30:31;;;;;;;14.20;2.60;;;;;;;28.42;39.18;100333.47;4166539;28;22093;-68
2022/08/03 09:33:02;;;;;;;6.35;2.53;;;;;;;28.45;37.54;100337.59;4161041;28;25502;-67
2022/08/03 09:35:29;;;;;;;4.65;2.67;;;;;;;28.51;37.67;100329.19;4178292;28;23113;-66
2022/08/03 09:38:16;;;;;;;4.78;2.30;;;;;;;27.77;38.59;100325.41;4169465;28;20246;-68
2022/08/03 09:40:44;;;;;;;3.58;2.10;;;;;;;27.65;38.85;100329.41;4155931;28;20242;-68
2022/08/03 09:43:12;;;;;;;3.17;2.13;;;;;;;27.89;38.53;100330.72;4169798;28;20239;-67
2022/08/03 09:45:39;;;;;;;6.90;2.45;;;;;;;28.14;38.20;100326.50;4168642;28;22941;-67
2022/08/03 09:48:36;;;;;;;7.13;4.25;;;;;;;28.16;39.21;100333.34;4167413;28;20242;-67
2022/08/03 09:51:03;;;;;;;5.87;3.27;;;;;;;27.78;41.02;100328.97;4161645;28;20233;-69
2022/08/03 09:53:49;;;;;;;5.03;2.85;;;;;;;27.54;40.31;100321.13;4175676;28;20241;-67
2022/08/03 09:56:37;;;;;;;5.07;2.87;;;;;;;27.59;41.96;100314.88;4170888;28;20237;-67
2022/08/03 09:59:04;;;;;;;3.73;2.70;;;;;;;27.88;38.80;100320.03;4170762;28;21054;-66
2022/08/03 10:01:34;;;;;;;7.25;2.92;;;;;;;27.87;38.74;100319.22;4163948;28;21840;-67
2022/08/03 10:04:01;;;;;;;4.90;2.30;;;;;;;27.40;37.90;100313.63;4181656;28;20601;-68
2022/08/03 10:06:29;;;;;;;5.05;2.38;;;;;;;27.26;40.58;100311.31;4163338;28;25828;-68
2022/08/03 10:09:10;;;;;;;4.40;2.87;;;;;;;27.62;41.11;100308.88;4173997;28;20368;-68
2022/08/03 10:11:37;;;;;;;5.80;2.58;;;;;;;27.77;38.63;100317.22;4167551;28;25405;-65
2022/08/03 10:14:10;;;;;;;6.20;2.93;;;;;;;27.60;40.36;100313.78;4166042;28;21796;-68
2022/08/03 10:16:39;;;;;;;6.73;2.80;;;;;;;27.43;41.93;100302.97;4167257;28;20611;-68
2022/08/03 10:19:07;;;;;;;6.17;2.70;;;;;;;27.60;41.64;100311.03;4168952;28;23784;-66
2022/08/03 10:21:36;;;;;;;6.73;2.67;;;;;;;27.85;42.31;100315.09;4170508;28;21572;-66
2022/08/03 10:24:05;;;;;;;6.87;2.50;;;;;;;27.93;40.54;100311.84;4168334;28;20238;-67
2022/08/03 10:26:37;;;;;;;4.18;2.50;;;;;;;27.92;40.67;100321.97;4166209;28;20250;-69
2022/08/03 10:29:10;;;;;;;6.25;2.40;;;;;;;27.96;40.54;100311.34;4160686;28;20321;-68
2022/08/03 10:31:39;;;;;;;3.50;2.15;;;;;;;28.05;40.78;100314.38;4186231;28;21294;-69
2022/08/03 10:34:25;;;;;;;3.83;2.47;;;;;;;28.23;36.56;100321.34;4155137;28;25885;-66
2022/08/03 10:36:55;;;;;;;5.50;2.90;;;;;;;28.08;38.17;100324.81;4166094;28;20241;-68
2022/08/03 10:39:23;;;;;;;5.57;2.90;;;;;;;28.18;38.47;100313.94;4158650;28;20289;-67
2022/08/03 10:41:50;;;;;;;4.40;2.90;;;;;;;28.19;38.94;100313.69;4166775;28;20396;-68
2022/08/03 10:44:19;;;;;;;3.65;2.63;;;;;;;28.01;40.03;100314.13;4154847;28;20241;-68
2022/08/03 10:46:47;;;;;;;6.70;2.90;;;;;;;28.09;39.40;100313.59;4164231;28;21551;-69
2022/08/03 10:49:16;;;;;;;11.20;2.80;;;;;;;28.01;37.42;100314.13;4163591;28;20749;-67
2022/08/03 10:51:59;;;;;;;5.53;2.70;;;;;;;28.02;38.34;100320.41;4149242;28;20537;-69
2022/08/03 10:54:34;;;;;;;4.00;2.87;;;;;;;28.09;37.23;100327.28;4177740;28;22228;-69
2022/08/03 10:59:45;;;;;;;8.70;3.35;;;;;;;28.14;39.15;100315.53;4162067;28;20270;-68
2022/08/03 11:02:15;;;;;;;4.77;2.50;;;;;;;28.06;37.62;100322.34;4165824;28;20282;-66
2022/08/03 11:04:43;;;;;;;3.80;2.30;;;;;;;28.02;38.02;100314.94;4176686;28;20246;-67
2022/08/03 11:07:22;;;;;;;3.17;2.60;;;;;;;28.25;38.15;100317.25;4170919;28;20234;-67
2022/08/03 11:09:53;;;;;;;8.03;2.43;;;;;;;28.36;38.10;100309.94;4168206;28;23962;-68
2022/08/03 11:12:28;;;;;;;4.95;2.25;;;;;;;28.15;39.56;100315.28;4165880;28;20305;-68
2022/08/03 11:15:02;;;;;;;4.03;2.70;;;;;;;27.94;37.74;100314.34;4170823;28;21730;-64
2022/08/03 11:17:29;;;;;;;4.37;2.30;;;;;;;27.92;37.99;100311.03;4158481;28;20324;-66
2022/08/03 11:19:56;;;;;;;6.60;2.42;;;;;;;28.11;38.30;100311.44;4171000;28;20279;-68
2022/08/03 11:22:24;;;;;;;6.32;2.40;;;;;;;28.28;37.76;100303.03;4164384;28;20336;-65
2022/08/03 11:24:53;;;;;;;5.00;3.23;;;;;;;28.47;37.96;100300.72;4171037;28;23644;-67
2022/08/03 11:27:21;;;;;;;7.70;2.80;;;;;;;28.69;38.01;100302.44;4165602;28;20242;-68
2022/08/03 11:30:04;;;;;;;6.90;2.53;;;;;;;28.61;37.86;100299.13;4196379;28;23626;-66
2022/08/03 11:32:36;;;;;;;3.88;2.60;;;;;;;28.61;36.99;100299.13;4172053;28;21148;-65
2022/08/03 11:35:07;;;;;;;5.70;2.70;;;;;;;28.83;37.56;100287.13;4167215;28;20237;-68